sensor_id;sensor_type;location;lat;lon;timestamp;pressure;altitude;pressure_sealevel;temperature;humidity
46464;BME280;32161;48.148;-1.554;2023-02-26T00:01:26;100972.13;;;5.05;78.90
46464;BME280;32161;48.148;-1.554;2023-02-26T00:04:00;100972.25;;;4.97;78.98
46464;BME280;32161;48.148;-1.554;2023-02-26T00:06:31;100978.72;;;5.03;78.77
46464;BME280;32161;48.148;-1.554;2023-02-26T00:08:59;100987.13;;;4.93;78.70
46464;BME280;32161;48.148;-1.554;2023-02-26T00:11:27;100980.81;;;4.86;79.01
46464;BME280;32161;48.148;-1.554;2023-02-26T00:13:55;100983.03;;;4.82;79.03
46464;BME280;32161;48.148;-1.554;2023-02-26T00:16:29;100978.66;;;4.81;79.21
46464;BME280;32161;48.148;-1.554;2023-02-26T00:19:01;100979.31;;;4.83;78.84
46464;BME280;32161;48.148;-1.554;2023-02-26T00:21:30;100987.00;;;4.86;78.97
46464;BME280;32161;48.148;-1.554;2023-02-26T00:23:58;100985.53;;;4.84;79.17
46464;BME280;32161;48.148;-1.554;2023-02-26T00:26:29;100983.59;;;4.78;79.07
46464;BME280;32161;48.148;-1.554;2023-02-26T00:28:57;100979.59;;;4.74;79.01
46464;BME280;32161;48.148;-1.554;2023-02-26T00:31:26;100984.16;;;4.73;78.96
46464;BME280;32161;48.148;-1.554;2023-02-26T00:33:56;100985.00;;;4.74;79.37
46464;BME280;32161;48.148;-1.554;2023-02-26T00:36:38;100996.41;;;4.76;78.40
46464;BME280;32161;48.148;-1.554;2023-02-26T00:39:25;100986.75;;;4.81;78.43
46464;BME280;32161;48.148;-1.554;2023-02-26T00:41:57;100986.19;;;4.71;78.59
46464;BME280;32161;48.148;-1.554;2023-02-26T00:44:26;100982.56;;;4.79;78.24
46464;BME280;32161;48.148;-1.554;2023-02-26T00:46:58;100996.03;;;4.64;78.13
46464;BME280;32161;48.148;-1.554;2023-02-26T00:49:40;100996.59;;;4.59;78.35
46464;BME280;32161;48.148;-1.554;2023-02-26T00:52:17;100995.38;;;4.62;78.28
46464;BME280;32161;48.148;-1.554;2023-02-26T00:54:47;100999.06;;;4.61;77.81
46464;BME280;32161;48.148;-1.554;2023-02-26T00:57:15;101001.69;;;4.54;78.34
46464;BME280;32161;48.148;-1.554;2023-02-26T00:59:42;100997.31;;;4.53;78.06
46464;BME280;32161;48.148;-1.554;2023-02-26T01:02:10;101006.84;;;4.41;78.47
46464;BME280;32161;48.148;-1.554;2023-02-26T01:04:39;101005.28;;;4.32;78.62
46464;BME280;32161;48.148;-1.554;2023-02-26T01:07:08;101007.22;;;4.38;78.61
46464;BME280;32161;48.148;-1.554;2023-02-26T01:09:39;101016.41;;;4.29;78.86
46464;BME280;32161;48.148;-1.554;2023-02-26T01:12:10;101022.44;;;4.31;78.29
46464;BME280;32161;48.148;-1.554;2023-02-26T01:14:39;101018.88;;;4.15;78.87
46464;BME280;32161;48.148;-1.554;2023-02-26T01:17:13;101013.63;;;4.37;78.44
46464;BME280;32161;48.148;-1.554;2023-02-26T01:19:47;101026.81;;;4.32;78.03
46464;BME280;32161;48.148;-1.554;2023-02-26T01:22:19;101027.16;;;4.29;77.89
46464;BME280;32161;48.148;-1.554;2023-02-26T01:24:55;101029.25;;;4.19;77.83
46464;BME280;32161;48.148;-1.554;2023-02-26T01:27:26;101043.13;;;4.30;77.59
46464;BME280;32161;48.148;-1.554;2023-02-26T01:29:54;101045.38;;;4.27;77.56
46464;BME280;32161;48.148;-1.554;2023-02-26T01:32:26;101042.34;;;4.22;77.74
46464;BME280;32161;48.148;-1.554;2023-02-26T01:35:04;101041.41;;;4.14;76.99
46464;BME280;32161;48.148;-1.554;2023-02-26T01:37:46;101036.09;;;4.06;77.93
46464;BME280;32161;48.148;-1.554;2023-02-26T01:40:45;101042.06;;;4.16;77.93
46464;BME280;32161;48.148;-1.554;2023-02-26T01:43:29;101041.47;;;4.06;77.75
46464;BME280;32161;48.148;-1.554;2023-02-26T01:46:08;101045.19;;;4.05;78.12
46464;BME280;32161;48.148;-1.554;2023-02-26T01:48:49;101041.94;;;4.10;77.90
46464;BME280;32161;48.148;-1.554;2023-02-26T01:51:18;101047.63;;;4.15;77.95
46464;BME280;32161;48.148;-1.554;2023-02-26T01:53:46;101042.25;;;4.15;77.33
46464;BME280;32161;48.148;-1.554;2023-02-26T01:56:17;101051.41;;;4.06;77.57
46464;BME280;32161;48.148;-1.554;2023-02-26T01:58:47;101048.34;;;4.09;77.69
46464;BME280;32161;48.148;-1.554;2023-02-26T02:01:16;101058.63;;;4.05;77.27
46464;BME280;32161;48.148;-1.554;2023-02-26T02:03:44;101051.59;;;4.04;77.26
46464;BME280;32161;48.148;-1.554;2023-02-26T02:06:17;101052.44;;;4.05;77.69
46464;BME280;32161;48.148;-1.554;2023-02-26T02:08:47;101057.63;;;4.06;77.12
46464;BME280;32161;48.148;-1.554;2023-02-26T02:11:16;101057.81;;;4.05;77.33
46464;BME280;32161;48.148;-1.554;2023-02-26T02:13:59;101069.09;;;4.00;76.91
46464;BME280;32161;48.148;-1.554;2023-02-26T02:16:40;101066.28;;;3.94;77.61
46464;BME280;32161;48.148;-1.554;2023-02-26T02:19:39;101064.09;;;3.97;77.33
46464;BME280;32161;48.148;-1.554;2023-02-26T02:22:45;101056.38;;;3.94;77.53
46464;BME280;32161;48.148;-1.554;2023-02-26T02:28:42;101069.53;;;3.89;77.21
46464;BME280;32161;48.148;-1.554;2023-02-26T02:31:19;101062.00;;;3.84;76.92
46464;BME280;32161;48.148;-1.554;2023-02-26T02:33:54;101063.34;;;3.80;77.22
46464;BME280;32161;48.148;-1.554;2023-02-26T02:36:30;101069.09;;;3.77;77.30
46464;BME280;32161;48.148;-1.554;2023-02-26T02:39:05;101061.72;;;3.71;77.30
46464;BME280;32161;48.148;-1.554;2023-02-26T02:41:37;101073.66;;;3.68;77.26
46464;BME280;32161;48.148;-1.554;2023-02-26T02:44:12;101072.88;;;3.60;77.57
46464;BME280;32161;48.148;-1.554;2023-02-26T02:46:46;101072.25;;;3.58;77.81
46464;BME280;32161;48.148;-1.554;2023-02-26T02:49:20;101082.31;;;3.56;77.65
46464;BME280;32161;48.148;-1.554;2023-02-26T02:51:53;101079.09;;;3.60;77.63
46464;BME280;32161;48.148;-1.554;2023-02-26T02:54:32;101076.88;;;3.64;76.72
46464;BME280;32161;48.148;-1.554;2023-02-26T02:57:03;101065.16;;;3.57;76.77
46464;BME280;32161;48.148;-1.554;2023-02-26T02:59:40;101075.97;;;3.49;76.65
46464;BME280;32161;48.148;-1.554;2023-02-26T03:02:16;101076.78;;;3.49;76.69
46464;BME280;32161;48.148;-1.554;2023-02-26T03:04:46;101064.72;;;3.45;77.12
46464;BME280;32161;48.148;-1.554;2023-02-26T03:07:14;101078.16;;;3.45;76.70
46464;BME280;32161;48.148;-1.554;2023-02-26T03:09:42;101070.78;;;3.47;76.38
46464;BME280;32161;48.148;-1.554;2023-02-26T03:12:10;101065.78;;;3.36;76.38
46464;BME280;32161;48.148;-1.554;2023-02-26T03:14:37;101067.81;;;3.34;77.13
46464;BME280;32161;48.148;-1.554;2023-02-26T03:17:19;101067.50;;;3.29;76.62
46464;BME280;32161;48.148;-1.554;2023-02-26T03:20:08;101069.19;;;3.22;77.31
46464;BME280;32161;48.148;-1.554;2023-02-26T03:22:48;101074.56;;;3.22;77.17
46464;BME280;32161;48.148;-1.554;2023-02-26T03:25:23;101082.31;;;3.16;77.13
46464;BME280;32161;48.148;-1.554;2023-02-26T03:28:00;101086.38;;;3.12;76.87
46464;BME280;32161;48.148;-1.554;2023-02-26T03:30:36;101084.34;;;3.14;76.82
46464;BME280;32161;48.148;-1.554;2023-02-26T03:33:12;101100.44;;;3.14;76.97
46464;BME280;32161;48.148;-1.554;2023-02-26T03:35:48;101101.97;;;3.17;76.46
46464;BME280;32161;48.148;-1.554;2023-02-26T03:38:25;101099.09;;;3.27;75.96
46464;BME280;32161;48.148;-1.554;2023-02-26T03:40:57;101100.50;;;2.98;76.73
46464;BME280;32161;48.148;-1.554;2023-02-26T03:43:33;101106.72;;;2.99;77.08
46464;BME280;32161;48.148;-1.554;2023-02-26T03:46:06;101108.22;;;3.01;77.33
46464;BME280;32161;48.148;-1.554;2023-02-26T03:48:36;101111.91;;;3.08;76.77
46464;BME280;32161;48.148;-1.554;2023-02-26T03:51:09;101113.28;;;2.96;77.36
46464;BME280;32161;48.148;-1.554;2023-02-26T03:53:43;101113.59;;;3.01;76.41
46464;BME280;32161;48.148;-1.554;2023-02-26T03:56:17;101118.66;;;2.96;76.34
46464;BME280;32161;48.148;-1.554;2023-02-26T03:58:46;101116.63;;;2.98;77.09
46464;BME280;32161;48.148;-1.554;2023-02-26T04:01:18;101113.06;;;3.06;76.00
46464;BME280;32161;48.148;-1.554;2023-02-26T04:03:52;101111.22;;;3.06;76.48
46464;BME280;32161;48.148;-1.554;2023-02-26T04:06:22;101104.22;;;2.97;76.10
46464;BME280;32161;48.148;-1.554;2023-02-26T04:08:51;101114.94;;;2.97;76.76
46464;BME280;32161;48.148;-1.554;2023-02-26T04:11:20;101116.63;;;2.98;76.86
46464;BME280;32161;48.148;-1.554;2023-02-26T04:13:48;101118.63;;;3.04;76.64
46464;BME280;32161;48.148;-1.554;2023-02-26T04:16:17;101129.03;;;2.99;75.66
46464;BME280;32161;48.148;-1.554;2023-02-26T04:18:44;101134.06;;;3.02;76.12
46464;BME280;32161;48.148;-1.554;2023-02-26T04:21:16;101141.13;;;2.95;75.76
46464;BME280;32161;48.148;-1.554;2023-02-26T04:23:45;101126.22;;;2.92;76.14
46464;BME280;32161;48.148;-1.554;2023-02-26T04:26:13;101134.75;;;3.04;75.13
46464;BME280;32161;48.148;-1.554;2023-02-26T04:28:40;101132.91;;;2.97;75.11
46464;BME280;32161;48.148;-1.554;2023-02-26T04:31:08;101136.94;;;2.84;76.38
46464;BME280;32161;48.148;-1.554;2023-02-26T04:33:36;101139.47;;;2.86;76.08
46464;BME280;32161;48.148;-1.554;2023-02-26T04:36:04;101148.03;;;2.81;76.00
46464;BME280;32161;48.148;-1.554;2023-02-26T04:38:33;101148.53;;;2.85;75.83
46464;BME280;32161;48.148;-1.554;2023-02-26T04:41:01;101147.69;;;2.92;75.34
46464;BME280;32161;48.148;-1.554;2023-02-26T04:43:29;101146.00;;;2.75;76.10
46464;BME280;32161;48.148;-1.554;2023-02-26T04:45:56;101147.19;;;2.73;75.53
46464;BME280;32161;48.148;-1.554;2023-02-26T04:48:24;101145.38;;;2.73;75.34
46464;BME280;32161;48.148;-1.554;2023-02-26T04:50:52;101158.09;;;2.71;75.58
46464;BME280;32161;48.148;-1.554;2023-02-26T04:53:20;101164.63;;;2.68;75.62
46464;BME280;32161;48.148;-1.554;2023-02-26T04:55:49;101165.47;;;2.69;75.96
46464;BME280;32161;48.148;-1.554;2023-02-26T04:58:17;101164.63;;;2.68;75.52
46464;BME280;32161;48.148;-1.554;2023-02-26T05:00:48;101166.81;;;2.65;75.67
46464;BME280;32161;48.148;-1.554;2023-02-26T05:03:16;101175.22;;;2.62;75.40
46464;BME280;32161;48.148;-1.554;2023-02-26T05:05:44;101174.88;;;2.57;75.19
46464;BME280;32161;48.148;-1.554;2023-02-26T05:08:12;101170.00;;;2.52;74.82
46464;BME280;32161;48.148;-1.554;2023-02-26T05:10:40;101175.69;;;2.57;74.64
46464;BME280;32161;48.148;-1.554;2023-02-26T05:13:09;101180.75;;;2.52;75.55
46464;BME280;32161;48.148;-1.554;2023-02-26T05:15:36;101185.59;;;2.40;74.77
46464;BME280;32161;48.148;-1.554;2023-02-26T05:18:04;101176.72;;;2.40;75.09
46464;BME280;32161;48.148;-1.554;2023-02-26T05:20:31;101179.06;;;2.35;75.28
46464;BME280;32161;48.148;-1.554;2023-02-26T05:22:59;101180.03;;;2.34;75.85
46464;BME280;32161;48.148;-1.554;2023-02-26T05:25:26;101180.22;;;2.32;75.35
46464;BME280;32161;48.148;-1.554;2023-02-26T05:27:55;101177.03;;;2.37;75.38
46464;BME280;32161;48.148;-1.554;2023-02-26T05:30:24;101178.38;;;2.33;75.30
46464;BME280;32161;48.148;-1.554;2023-02-26T05:32:51;101182.41;;;2.37;74.18
46464;BME280;32161;48.148;-1.554;2023-02-26T05:35:19;101178.88;;;2.28;74.68
46464;BME280;32161;48.148;-1.554;2023-02-26T05:37:47;101179.72;;;2.45;74.26
46464;BME280;32161;48.148;-1.554;2023-02-26T05:40:14;101178.00;;;2.11;73.89
46464;BME280;32161;48.148;-1.554;2023-02-26T05:42:42;101183.72;;;2.25;74.08
46464;BME280;32161;48.148;-1.554;2023-02-26T05:45:10;101180.53;;;2.13;74.57
46464;BME280;32161;48.148;-1.554;2023-02-26T05:47:39;101187.75;;;2.20;73.71
46464;BME280;32161;48.148;-1.554;2023-02-26T05:50:09;101196.50;;;2.31;73.10
46464;BME280;32161;48.148;-1.554;2023-02-26T05:52:36;101206.53;;;2.29;72.77
46464;BME280;32161;48.148;-1.554;2023-02-26T05:55:06;101215.41;;;2.21;73.18
46464;BME280;32161;48.148;-1.554;2023-02-26T05:57:34;101216.53;;;2.02;73.31
46464;BME280;32161;48.148;-1.554;2023-02-26T06:00:02;101231.13;;;2.08;73.33
46464;BME280;32161;48.148;-1.554;2023-02-26T06:02:30;101214.84;;;2.01;73.55
46464;BME280;32161;48.148;-1.554;2023-02-26T06:04:59;101222.91;;;2.09;73.44
46464;BME280;32161;48.148;-1.554;2023-02-26T06:07:26;101233.19;;;1.80;74.17
46464;BME280;32161;48.148;-1.554;2023-02-26T06:09:54;101233.31;;;2.04;73.58
46464;BME280;32161;48.148;-1.554;2023-02-26T06:12:21;101240.81;;;2.01;73.54
46464;BME280;32161;48.148;-1.554;2023-02-26T06:14:49;101242.00;;;2.06;72.80
46464;BME280;32161;48.148;-1.554;2023-02-26T06:17:17;101245.84;;;2.04;73.38
46464;BME280;32161;48.148;-1.554;2023-02-26T06:19:44;101248.38;;;2.05;72.49
46464;BME280;32161;48.148;-1.554;2023-02-26T06:22:13;101257.94;;;2.08;73.06
46464;BME280;32161;48.148;-1.554;2023-02-26T06:24:41;101241.69;;;2.09;72.54
46464;BME280;32161;48.148;-1.554;2023-02-26T06:27:08;101262.06;;;1.94;72.28
46464;BME280;32161;48.148;-1.554;2023-02-26T06:29:36;101266.09;;;1.98;72.91
46464;BME280;32161;48.148;-1.554;2023-02-26T06:32:05;101264.97;;;2.09;71.45
46464;BME280;32161;48.148;-1.554;2023-02-26T06:34:32;101271.00;;;2.11;72.10
46464;BME280;32161;48.148;-1.554;2023-02-26T06:37:00;101272.00;;;2.02;71.99
46464;BME280;32161;48.148;-1.554;2023-02-26T06:39:29;101281.13;;;1.83;72.07
46464;BME280;32161;48.148;-1.554;2023-02-26T06:41:57;101283.44;;;1.78;72.69
46464;BME280;32161;48.148;-1.554;2023-02-26T06:44:25;101287.91;;;2.03;71.80
46464;BME280;32161;48.148;-1.554;2023-02-26T06:46:53;101290.38;;;1.88;71.05
46464;BME280;32161;48.148;-1.554;2023-02-26T06:49:20;101293.50;;;1.84;71.59
46464;BME280;32161;48.148;-1.554;2023-02-26T06:51:48;101304.72;;;1.79;71.97
46464;BME280;32161;48.148;-1.554;2023-02-26T06:54:16;101299.94;;;1.65;72.27
46464;BME280;32161;48.148;-1.554;2023-02-26T06:56:44;101314.19;;;1.65;72.17
46464;BME280;32161;48.148;-1.554;2023-02-26T06:59:12;101316.00;;;1.65;72.10
46464;BME280;32161;48.148;-1.554;2023-02-26T07:01:40;101316.16;;;1.89;70.93
46464;BME280;32161;48.148;-1.554;2023-02-26T07:04:08;101322.63;;;1.79;71.27
46464;BME280;32161;48.148;-1.554;2023-02-26T07:06:35;101322.44;;;1.72;70.82
46464;BME280;32161;48.148;-1.554;2023-02-26T07:09:03;101333.19;;;1.80;71.21
46464;BME280;32161;48.148;-1.554;2023-02-26T07:11:30;101336.22;;;1.77;70.77
46464;BME280;32161;48.148;-1.554;2023-02-26T07:13:59;101341.44;;;1.87;70.28
46464;BME280;32161;48.148;-1.554;2023-02-26T07:16:27;101347.38;;;1.73;70.76
46464;BME280;32161;48.148;-1.554;2023-02-26T07:18:54;101358.88;;;1.91;70.02
46464;BME280;32161;48.148;-1.554;2023-02-26T07:21:22;101353.84;;;1.88;70.12
46464;BME280;32161;48.148;-1.554;2023-02-26T07:23:49;101364.91;;;1.85;70.57
46464;BME280;32161;48.148;-1.554;2023-02-26T07:26:17;101364.56;;;1.88;71.09
46464;BME280;32161;48.148;-1.554;2023-02-26T07:28:44;101368.19;;;1.79;69.98
46464;BME280;32161;48.148;-1.554;2023-02-26T07:31:13;101377.00;;;1.89;70.52
46464;BME280;32161;48.148;-1.554;2023-02-26T07:33:42;101372.16;;;1.92;70.20
46464;BME280;32161;48.148;-1.554;2023-02-26T07:36:10;101376.38;;;2.03;69.44
46464;BME280;32161;48.148;-1.554;2023-02-26T07:38:37;101376.66;;;1.92;70.15
46464;BME280;32161;48.148;-1.554;2023-02-26T07:41:05;101383.41;;;1.96;69.58
46464;BME280;32161;48.148;-1.554;2023-02-26T07:43:32;101384.34;;;1.87;69.96
46464;BME280;32161;48.148;-1.554;2023-02-26T07:46:00;101388.81;;;1.78;70.83
46464;BME280;32161;48.148;-1.554;2023-02-26T07:48:29;101396.38;;;1.83;70.46
46464;BME280;32161;48.148;-1.554;2023-02-26T07:50:57;101402.47;;;1.93;69.73
46464;BME280;32161;48.148;-1.554;2023-02-26T07:53:24;101397.88;;;2.11;69.36
46464;BME280;32161;48.148;-1.554;2023-02-26T07:55:52;101405.78;;;1.87;70.15
46464;BME280;32161;48.148;-1.554;2023-02-26T07:58:20;101408.56;;;2.03;69.83
46464;BME280;32161;48.148;-1.554;2023-02-26T08:00:47;101410.66;;;2.17;69.87
46464;BME280;32161;48.148;-1.554;2023-02-26T08:03:15;101413.25;;;2.01;69.68
46464;BME280;32161;48.148;-1.554;2023-02-26T08:05:44;101411.72;;;2.25;68.91
46464;BME280;32161;48.148;-1.554;2023-02-26T08:08:11;101409.38;;;2.30;69.67
46464;BME280;32161;48.148;-1.554;2023-02-26T08:10:39;101410.50;;;2.53;67.72
46464;BME280;32161;48.148;-1.554;2023-02-26T08:13:07;101421.19;;;2.45;69.14
46464;BME280;32161;48.148;-1.554;2023-02-26T08:15:34;101419.63;;;2.34;70.00
46464;BME280;32161;48.148;-1.554;2023-02-26T08:18:02;101414.88;;;2.54;69.06
46464;BME280;32161;48.148;-1.554;2023-02-26T08:20:30;101422.25;;;2.52;67.90
46464;BME280;32161;48.148;-1.554;2023-02-26T08:22:59;101416.00;;;2.43;69.29
46464;BME280;32161;48.148;-1.554;2023-02-26T08:25:26;101429.41;;;2.43;68.85
46464;BME280;32161;48.148;-1.554;2023-02-26T08:27:54;101429.13;;;2.20;70.04
46464;BME280;32161;48.148;-1.554;2023-02-26T08:30:23;101435.97;;;2.49;70.11
46464;BME280;32161;48.148;-1.554;2023-02-26T08:32:50;101440.00;;;2.53;69.29
46464;BME280;32161;48.148;-1.554;2023-02-26T08:35:18;101447.53;;;2.84;68.58
46464;BME280;32161;48.148;-1.554;2023-02-26T08:37:45;101452.78;;;2.93;68.67
46464;BME280;32161;48.148;-1.554;2023-02-26T08:40:15;101454.78;;;3.00;68.78
46464;BME280;32161;48.148;-1.554;2023-02-26T08:42:42;101437.78;;;2.75;69.14
46464;BME280;32161;48.148;-1.554;2023-02-26T08:45:10;101447.22;;;2.87;68.69
46464;BME280;32161;48.148;-1.554;2023-02-26T08:47:38;101445.53;;;2.86;67.67
46464;BME280;32161;48.148;-1.554;2023-02-26T08:50:10;101442.75;;;3.04;68.04
46464;BME280;32161;48.148;-1.554;2023-02-26T08:52:38;101437.81;;;2.91;67.93
46464;BME280;32161;48.148;-1.554;2023-02-26T08:55:06;101440.22;;;3.10;68.46
46464;BME280;32161;48.148;-1.554;2023-02-26T08:57:35;101454.31;;;2.96;68.10
46464;BME280;32161;48.148;-1.554;2023-02-26T09:00:05;101453.34;;;3.22;67.21
46464;BME280;32161;48.148;-1.554;2023-02-26T09:02:35;101445.59;;;3.18;67.92
46464;BME280;32161;48.148;-1.554;2023-02-26T09:05:04;101456.56;;;3.33;67.13
46464;BME280;32161;48.148;-1.554;2023-02-26T09:07:31;101456.22;;;3.28;68.02
46464;BME280;32161;48.148;-1.554;2023-02-26T09:09:59;101458.50;;;3.07;66.77
46464;BME280;32161;48.148;-1.554;2023-02-26T09:12:27;101462.63;;;3.43;67.46
46464;BME280;32161;48.148;-1.554;2023-02-26T09:14:56;101459.94;;;3.43;67.89
46464;BME280;32161;48.148;-1.554;2023-02-26T09:17:24;101464.66;;;3.58;67.15
46464;BME280;32161;48.148;-1.554;2023-02-26T09:19:51;101461.47;;;3.54;67.47
46464;BME280;32161;48.148;-1.554;2023-02-26T09:22:19;101475.75;;;3.79;64.88
46464;BME280;32161;48.148;-1.554;2023-02-26T09:24:47;101475.75;;;3.87;66.63
46464;BME280;32161;48.148;-1.554;2023-02-26T09:27:14;101497.59;;;4.09;65.74
46464;BME280;32161;48.148;-1.554;2023-02-26T09:29:43;101495.75;;;4.18;64.80
46464;BME280;32161;48.148;-1.554;2023-02-26T09:32:12;101489.34;;;4.10;65.56
46464;BME280;32161;48.148;-1.554;2023-02-26T09:34:39;101496.25;;;4.21;64.18
46464;BME280;32161;48.148;-1.554;2023-02-26T09:37:08;101496.25;;;4.21;64.15
46464;BME280;32161;48.148;-1.554;2023-02-26T09:39:36;101495.22;;;4.22;65.30
46464;BME280;32161;48.148;-1.554;2023-02-26T09:42:12;101505.13;;;4.30;66.09
46464;BME280;32161;48.148;-1.554;2023-02-26T09:44:47;101502.47;;;4.13;64.37
46464;BME280;32161;48.148;-1.554;2023-02-26T09:47:19;101491.88;;;4.28;63.53
46464;BME280;32161;48.148;-1.554;2023-02-26T09:49:53;101490.03;;;4.21;63.67
46464;BME280;32161;48.148;-1.554;2023-02-26T09:52:37;101481.69;;;4.63;64.41
46464;BME280;32161;48.148;-1.554;2023-02-26T09:55:15;101472.78;;;4.62;62.61
46464;BME280;32161;48.148;-1.554;2023-02-26T09:57:45;101466.38;;;4.63;63.77
46464;BME280;32161;48.148;-1.554;2023-02-26T10:00:23;101469.91;;;4.64;63.16
46464;BME280;32161;48.148;-1.554;2023-02-26T10:03:06;101471.56;;;4.73;62.14
46464;BME280;32161;48.148;-1.554;2023-02-26T10:05:38;101487.00;;;4.79;63.48
46464;BME280;32161;48.148;-1.554;2023-02-26T10:08:14;101488.28;;;5.00;62.15
46464;BME280;32161;48.148;-1.554;2023-02-26T10:10:50;101489.94;;;5.09;60.33
46464;BME280;32161;48.148;-1.554;2023-02-26T10:13:26;101500.28;;;4.89;61.75
46464;BME280;32161;48.148;-1.554;2023-02-26T10:16:05;101507.63;;;5.03;59.94
46464;BME280;32161;48.148;-1.554;2023-02-26T10:18:39;101521.09;;;5.11;58.36
46464;BME280;32161;48.148;-1.554;2023-02-26T10:21:13;101500.56;;;5.02;59.18
46464;BME280;32161;48.148;-1.554;2023-02-26T10:23:44;101498.00;;;5.09;59.19
46464;BME280;32161;48.148;-1.554;2023-02-26T10:26:20;101506.28;;;5.38;59.40
46464;BME280;32161;48.148;-1.554;2023-02-26T10:28:55;101504.59;;;5.37;59.69
46464;BME280;32161;48.148;-1.554;2023-02-26T10:31:32;101499.03;;;5.39;58.57
46464;BME280;32161;48.148;-1.554;2023-02-26T10:34:17;101509.94;;;5.46;58.02
46464;BME280;32161;48.148;-1.554;2023-02-26T10:36:54;101506.03;;;5.48;59.68
46464;BME280;32161;48.148;-1.554;2023-02-26T10:39:30;101504.31;;;5.55;58.76
46464;BME280;32161;48.148;-1.554;2023-02-26T10:42:16;101510.63;;;5.71;58.16
46464;BME280;32161;48.148;-1.554;2023-02-26T10:44:56;101501.84;;;5.92;59.75
46464;BME280;32161;48.148;-1.554;2023-02-26T10:47:38;101509.94;;;5.69;59.08
46464;BME280;32161;48.148;-1.554;2023-02-26T10:50:12;101512.72;;;5.83;58.96
46464;BME280;32161;48.148;-1.554;2023-02-26T10:52:43;101515.84;;;5.95;58.17
46464;BME280;32161;48.148;-1.554;2023-02-26T10:55:38;101519.75;;;5.70;60.09
46464;BME280;32161;48.148;-1.554;2023-02-26T10:58:12;101537.22;;;6.05;59.07
46464;BME280;32161;48.148;-1.554;2023-02-26T11:00:42;101531.03;;;5.96;58.36
46464;BME280;32161;48.148;-1.554;2023-02-26T11:03:17;101535.50;;;6.27;57.48
46464;BME280;32161;48.148;-1.554;2023-02-26T11:05:47;101539.44;;;6.01;58.58
46464;BME280;32161;48.148;-1.554;2023-02-26T11:08:19;101536.00;;;6.07;59.04
46464;BME280;32161;48.148;-1.554;2023-02-26T11:10:53;101533.31;;;6.07;57.75
46464;BME280;32161;48.148;-1.554;2023-02-26T11:13:21;101536.59;;;6.18;57.88
46464;BME280;32161;48.148;-1.554;2023-02-26T11:15:51;101533.34;;;6.22;58.75
46464;BME280;32161;48.148;-1.554;2023-02-26T11:18:25;101541.03;;;6.48;58.25
46464;BME280;32161;48.148;-1.554;2023-02-26T11:20:57;101540.91;;;6.27;57.55
46464;BME280;32161;48.148;-1.554;2023-02-26T11:23:28;101541.78;;;6.42;57.50
46464;BME280;32161;48.148;-1.554;2023-02-26T11:26:02;101532.66;;;6.43;57.81
46464;BME280;32161;48.148;-1.554;2023-02-26T11:28:35;101536.94;;;6.52;56.43
46464;BME280;32161;48.148;-1.554;2023-02-26T11:31:06;101527.44;;;6.56;58.01
46464;BME280;32161;48.148;-1.554;2023-02-26T11:33:38;101522.44;;;6.53;59.88
46464;BME280;32161;48.148;-1.554;2023-02-26T11:36:11;101503.88;;;6.80;60.27
46464;BME280;32161;48.148;-1.554;2023-02-26T11:38:44;101520.94;;;6.95;57.48
46464;BME280;32161;48.148;-1.554;2023-02-26T11:41:13;101511.63;;;6.98;57.65
46464;BME280;32161;48.148;-1.554;2023-02-26T11:43:45;101533.22;;;7.13;58.46
46464;BME280;32161;48.148;-1.554;2023-02-26T11:46:15;101532.41;;;7.12;55.94
46464;BME280;32161;48.148;-1.554;2023-02-26T11:48:45;101536.78;;;6.98;56.89
46464;BME280;32161;48.148;-1.554;2023-02-26T11:51:19;101531.34;;;7.28;55.21
46464;BME280;32161;48.148;-1.554;2023-02-26T11:53:51;101536.91;;;7.26;56.34
46464;BME280;32161;48.148;-1.554;2023-02-26T11:56:31;101533.50;;;7.18;55.47
46464;BME280;32161;48.148;-1.554;2023-02-26T11:59:06;101538.69;;;7.34;59.97
46464;BME280;32161;48.148;-1.554;2023-02-26T12:01:35;101545.69;;;7.65;58.32
46464;BME280;32161;48.148;-1.554;2023-02-26T12:04:03;101525.47;;;7.61;57.58
46464;BME280;32161;48.148;-1.554;2023-02-26T12:06:32;101514.88;;;7.44;58.06
46464;BME280;32161;48.148;-1.554;2023-02-26T12:09:00;101517.47;;;7.16;54.87
46464;BME280;32161;48.148;-1.554;2023-02-26T12:11:40;101523.34;;;6.90;54.58
46464;BME280;32161;48.148;-1.554;2023-02-26T12:14:32;101514.19;;;7.21;54.94
46464;BME280;32161;48.148;-1.554;2023-02-26T12:17:15;101505.47;;;6.89;53.49
46464;BME280;32161;48.148;-1.554;2023-02-26T12:19:55;101480.50;;;6.87;54.97
46464;BME280;32161;48.148;-1.554;2023-02-26T12:22:48;101485.59;;;7.12;54.94
46464;BME280;32161;48.148;-1.554;2023-02-26T12:25:34;101492.41;;;7.44;55.16
46464;BME280;32161;48.148;-1.554;2023-02-26T12:34:56;101501.06;;;7.54;50.82
46464;BME280;32161;48.148;-1.554;2023-02-26T12:37:47;101493.63;;;7.41;49.09
46464;BME280;32161;48.148;-1.554;2023-02-26T12:40:43;101493.06;;;7.46;50.69
46464;BME280;32161;48.148;-1.554;2023-02-26T12:43:24;101496.44;;;7.69;50.68
46464;BME280;32161;48.148;-1.554;2023-02-26T12:46:11;101493.03;;;7.82;48.00
46464;BME280;32161;48.148;-1.554;2023-02-26T12:49:18;101499.97;;;7.91;47.43
46464;BME280;32161;48.148;-1.554;2023-02-26T12:55:03;101493.69;;;7.84;45.93
46464;BME280;32161;48.148;-1.554;2023-02-26T13:00:55;101497.41;;;7.62;45.34
46464;BME280;32161;48.148;-1.554;2023-02-26T13:04:13;101497.78;;;7.58;47.26
46464;BME280;32161;48.148;-1.554;2023-02-26T13:10:02;101491.34;;;7.59;46.19
46464;BME280;32161;48.148;-1.554;2023-02-26T13:12:41;101490.97;;;7.63;47.86
46464;BME280;32161;48.148;-1.554;2023-02-26T13:15:55;101504.53;;;7.48;46.82
46464;BME280;32161;48.148;-1.554;2023-02-26T13:18:34;101507.84;;;7.86;45.56
46464;BME280;32161;48.148;-1.554;2023-02-26T13:21:11;101502.88;;;7.90;44.12
46464;BME280;32161;48.148;-1.554;2023-02-26T13:23:49;101508.22;;;7.83;43.92
46464;BME280;32161;48.148;-1.554;2023-02-26T13:26:20;101499.94;;;7.85;44.97
46464;BME280;32161;48.148;-1.554;2023-02-26T13:28:56;101516.28;;;7.76;44.54
46464;BME280;32161;48.148;-1.554;2023-02-26T13:31:29;101510.78;;;7.48;44.00
46464;BME280;32161;48.148;-1.554;2023-02-26T13:34:01;101497.25;;;7.48;44.92
46464;BME280;32161;48.148;-1.554;2023-02-26T13:36:31;101513.19;;;7.58;43.83